Time;durP1;ratioP1;P1;durP2;ratioP2;P2;SDS_P1;SDS_P2;PMS_P1;PMS_P2;Temp;Humidity;BMP_temperature;BMP_pressure;BME280_temperature;BME280_humidity;BME280_pressure;Samples;Min_cycle;Max_cycle;Signal;HPM_P1;HPM_P2
2021/04/16 00:00:33;;;;;;;10.05;9.02;;;3.80;99.90;;;;;;5042398;28;20540;-73
2021/04/16 00:02:59;;;;;;;10.77;9.40;;;3.80;99.90;;;;;;5031442;28;20268;-75
2021/04/16 00:05:30;;;;;;;13.63;10.60;;;3.70;99.90;;;;;;5029395;28;20197;-74
2021/04/16 00:07:57;;;;;;;12.55;9.40;;;3.70;99.90;;;;;;5032928;28;20177;-74
2021/04/16 00:10:31;;;;;;;10.52;8.70;;;3.60;99.90;;;;;;5033260;28;20240;-74
2021/04/16 00:12:59;;;;;;;11.02;9.50;;;3.60;99.90;;;;;;5034871;28;20276;-74
2021/04/16 00:15:27;;;;;;;11.48;9.02;;;3.60;99.90;;;;;;5034080;28;20213;-76
2021/04/16 00:17:54;;;;;;;10.00;8.98;;;3.50;99.90;;;;;;5034974;28;20204;-74
2021/04/16 00:20:24;;;;;;;13.98;8.57;;;3.50;99.90;;;;;;5034300;28;20663;-74
2021/04/16 00:22:50;;;;;;;10.32;8.90;;;3.40;99.90;;;;;;5035247;28;20720;-75
2021/04/16 00:25:20;;;;;;;14.05;8.95;;;3.40;99.90;;;;;;5033776;28;20232;-73
2021/04/16 00:27:47;;;;;;;12.82;9.43;;;3.40;99.90;;;;;;5049549;28;20247;-74
2021/04/16 00:30:14;;;;;;;12.32;8.57;;;3.40;99.90;;;;;;5049623;28;20240;-75
2021/04/16 00:32:41;;;;;;;15.25;8.52;;;3.40;99.90;;;;;;5034101;28;20303;-73
2021/04/16 00:35:13;;;;;;;8.68;7.82;;;3.40;99.90;;;;;;5034419;28;20255;-74
2021/04/16 00:37:39;;;;;;;10.70;8.85;;;3.40;99.90;;;;;;5032562;28;20304;-72
2021/04/16 00:40:09;;;;;;;9.68;8.77;;;3.40;99.90;;;;;;5033609;28;20197;-75
2021/04/16 00:42:36;;;;;;;10.68;8.90;;;3.30;99.90;;;;;;5034095;28;20311;-75
2021/04/16 00:45:04;;;;;;;16.05;7.85;;;3.40;99.90;;;;;;5037265;28;20212;-74
2021/04/16 00:47:31;;;;;;;9.30;7.75;;;3.50;99.90;;;;;;5052244;28;20388;-76
2021/04/16 00:50:06;;;;;;;13.77;8.00;;;3.50;99.90;;;;;;5069675;28;20627;-75
2021/04/16 00:52:33;;;;;;;12.23;7.85;;;3.40;99.90;;;;;;5050788;28;20751;-74
2021/04/16 00:55:02;;;;;;;9.77;7.00;;;3.50;99.90;;;;;;5034063;28;20563;-73
2021/04/16 00:57:28;;;;;;;11.05;7.57;;;3.40;99.90;;;;;;5033417;28;20239;-75
2021/04/16 00:59:57;;;;;;;13.63;8.20;;;3.30;99.90;;;;;;5049188;28;20217;-73
2021/04/16 01:02:24;;;;;;;13.05;7.40;;;3.20;99.90;;;;;;5032216;28;20512;-74
2021/04/16 01:04:53;;;;;;;14.07;8.13;;;3.10;99.90;;;;;;5051574;28;20674;-73
2021/04/16 01:07:21;;;;;;;9.95;8.20;;;3.00;99.90;;;;;;5053148;28;20235;-74
2021/04/16 01:09:49;;;;;;;17.73;8.40;;;3.00;99.90;;;;;;5043872;28;20227;-74
2021/04/16 01:12:16;;;;;;;13.15;7.50;;;3.00;99.90;;;;;;5051894;28;20226;-74
2021/04/16 01:14:50;;;;;;;15.20;8.65;;;3.00;99.90;;;;;;5051869;28;20185;-73
2021/04/16 01:17:17;;;;;;;11.13;7.80;;;2.90;99.90;;;;;;5032952;28;20313;-73
2021/04/16 01:20:09;;;;;;;11.65;9.75;;;2.90;99.90;;;;;;5036201;28;20663;-76
2021/04/16 01:22:39;;;;;;;11.27;7.85;;;2.90;99.90;;;;;;5046572;28;20231;-74
2021/04/16 01:25:07;;;;;;;10.80;7.78;;;2.90;99.90;;;;;;5052720;28;20746;-75
2021/04/16 01:27:34;;;;;;;9.45;7.03;;;2.90;99.90;;;;;;5052589;28;20760;-73
2021/04/16 01:30:10;;;;;;;10.18;7.22;;;2.90;99.90;;;;;;5049336;28;20272;-73
2021/04/16 01:32:37;;;;;;;8.68;7.10;;;2.80;99.90;;;;;;5031753;28;20248;-73
2021/04/16 01:35:14;;;;;;;11.38;7.88;;;2.80;99.90;;;;;;5033518;28;20420;-73
2021/04/16 01:37:40;;;;;;;10.10;7.20;;;2.80;99.90;;;;;;5032471;28;20216;-72
2021/04/16 01:40:09;;;;;;;14.18;8.45;;;2.70;99.90;;;;;;5033408;28;20193;-74
2021/04/16 01:42:36;;;;;;;8.45;6.85;;;2.70;99.90;;;;;;5033096;28;20221;-73
2021/04/16 01:45:05;;;;;;;13.82;7.18;;;2.80;99.90;;;;;;5033183;28;20708;-76
2021/04/16 01:47:32;;;;;;;9.07;7.57;;;2.70;99.90;;;;;;5031462;28;20217;-73
2021/04/16 01:49:59;;;;;;;8.48;7.65;;;2.70;99.90;;;;;;5033120;28;20183;-72
2021/04/16 01:52:31;;;;;;;11.20;8.02;;;2.70;99.90;;;;;;5031524;28;20251;-73
2021/04/16 01:54:58;;;;;;;10.25;7.25;;;2.70;99.90;;;;;;5032864;28;20297;-73
2021/04/16 01:57:27;;;;;;;8.45;7.32;;;2.70;99.90;;;;;;5031043;28;20221;-73
2021/04/16 01:59:55;;;;;;;16.63;7.28;;;2.60;99.90;;;;;;5049633;28;20267;-75
2021/04/16 02:02:34;;;;;;;10.30;7.85;;;2.60;99.90;;;;;;5032480;28;20294;-73
2021/04/16 02:05:02;;;;;;;7.22;6.60;;;2.60;99.90;;;;;;5048082;28;20205;-73
2021/04/16 02:07:29;;;;;;;7.50;5.97;;;2.60;99.90;;;;;;5047460;28;20212;-75
2021/04/16 02:09:55;;;;;;;10.77;7.20;;;2.50;99.90;;;;;;5031469;28;20193;-74
2021/04/16 02:12:23;;;;;;;12.30;7.72;;;2.50;99.90;;;;;;5032253;28;20227;-72
2021/04/16 02:14:51;;;;;;;9.27;7.65;;;2.50;99.90;;;;;;5032302;28;20705;-74
2021/04/16 02:17:21;;;;;;;12.68;8.88;;;2.40;99.90;;;;;;5031821;28;20232;-74
2021/04/16 02:19:49;;;;;;;15.48;8.00;;;2.40;99.90;;;;;;5032773;28;20287;-75
2021/04/16 02:22:18;;;;;;;8.90;8.00;;;2.40;99.90;;;;;;5030668;28;20440;-73
2021/04/16 02:24:45;;;;;;;12.57;8.05;;;2.40;99.90;;;;;;5032189;28;20683;-73
2021/04/16 02:27:14;;;;;;;10.75;7.68;;;2.40;99.90;;;;;;5031695;28;20565;-72
2021/04/16 02:29:40;;;;;;;11.38;8.43;;;2.40;99.90;;;;;;5030760;28;20284;-73
2021/04/16 02:32:08;;;;;;;9.50;7.88;;;2.40;99.90;;;;;;5031498;28;20217;-74
2021/04/16 02:34:35;;;;;;;9.45;7.00;;;2.50;99.90;;;;;;5032366;28;20188;-75
2021/04/16 02:37:07;;;;;;;12.43;7.70;;;2.40;99.90;;;;;;5031499;28;20220;-73
2021/04/16 02:39:34;;;;;;;10.57;6.82;;;2.50;99.90;;;;;;5030898;28;20627;-73
2021/04/16 02:42:01;;;;;;;12.05;7.95;;;2.40;99.90;;;;;;5036206;28;20223;-73
2021/04/16 02:44:27;;;;;;;9.00;7.05;;;2.50;99.90;;;;;;5051717;28;20228;-74
2021/04/16 02:46:55;;;;;;;11.85;7.38;;;2.50;99.90;;;;;;5030411;28;20662;-74
2021/04/16 02:49:22;;;;;;;11.60;7.55;;;2.50;99.90;;;;;;5047241;28;20184;-73
2021/04/16 02:51:50;;;;;;;11.70;6.97;;;2.50;99.90;;;;;;5051759;28;20601;-73
2021/04/16 02:54:16;;;;;;;10.07;7.88;;;2.40;99.90;;;;;;5037222;28;20185;-73
2021/04/16 02:56:43;;;;;;;13.05;7.93;;;2.40;99.90;;;;;;5031089;28;20247;-74
2021/04/16 02:59:10;;;;;;;11.05;7.82;;;2.30;99.90;;;;;;5032200;28;20590;-73
2021/04/16 03:01:38;;;;;;;13.00;6.97;;;2.30;99.90;;;;;;5047257;28;20228;-74
2021/04/16 03:04:04;;;;;;;11.05;6.93;;;2.20;99.90;;;;;;5050831;28;20243;-73
2021/04/16 03:06:31;;;;;;;10.50;7.75;;;2.20;99.90;;;;;;5049883;28;20224;-75
2021/04/16 03:09:01;;;;;;;13.10;8.45;;;2.10;99.90;;;;;;5043289;28;20275;-73
2021/04/16 03:11:28;;;;;;;14.45;7.38;;;2.10;99.90;;;;;;5029994;28;20256;-73
2021/04/16 03:13:55;;;;;;;8.50;7.18;;;2.10;99.90;;;;;;5031954;28;20181;-73
2021/04/16 03:16:24;;;;;;;10.98;7.57;;;2.10;99.90;;;;;;5029606;28;20259;-74
2021/04/16 03:18:52;;;;;;;11.13;8.50;;;2.10;99.90;;;;;;5030647;28;20185;-75
2021/04/16 03:21:19;;;;;;;8.30;7.50;;;2.10;99.90;;;;;;5029972;28;20487;-75
2021/04/16 03:23:45;;;;;;;12.77;7.85;;;2.10;99.90;;;;;;5046714;28;20227;-73
2021/04/16 03:26:16;;;;;;;10.45;7.40;;;2.10;99.90;;;;;;5030870;28;20732;-75
2021/04/16 03:28:43;;;;;;;9.65;7.05;;;2.10;99.90;;;;;;5034267;28;20586;-74
2021/04/16 03:31:10;;;;;;;9.20;7.68;;;2.10;99.90;;;;;;5029719;28;20208;-73
2021/04/16 03:33:37;;;;;;;11.45;8.07;;;2.10;99.90;;;;;;5031646;28;20181;-74
2021/04/16 03:36:06;;;;;;;12.95;7.70;;;2.10;99.90;;;;;;5029635;28;20235;-74
2021/04/16 03:38:32;;;;;;;11.00;8.40;;;2.10;99.90;;;;;;5049901;28;20709;-73
2021/04/16 03:40:59;;;;;;;10.85;7.32;;;2.10;99.90;;;;;;5050581;28;20244;-73
2021/04/16 03:43:26;;;;;;;11.30;8.55;;;2.10;99.90;;;;;;5052690;28;20192;-73
2021/04/16 03:45:55;;;;;;;9.60;8.68;;;2.10;99.90;;;;;;5042889;28;20713;-73
2021/04/16 03:48:22;;;;;;;11.88;8.55;;;2.10;99.90;;;;;;5035333;28;20209;-73
2021/04/16 03:50:48;;;;;;;10.23;8.35;;;2.20;99.90;;;;;;5034833;28;20717;-74
2021/04/16 03:53:15;;;;;;;8.73;7.82;;;2.20;99.90;;;;;;5035419;28;20260;-73
2021/04/16 03:55:41;;;;;;;12.10;7.53;;;2.20;99.90;;;;;;5034328;28;20514;-74
2021/04/16 03:58:09;;;;;;;11.52;8.10;;;2.20;99.90;;;;;;5035216;28;20205;-75
2021/04/16 04:00:38;;;;;;;9.27;8.27;;;2.30;99.90;;;;;;5035110;28;20279;-74
2021/04/16 04:03:06;;;;;;;9.57;8.68;;;2.30;99.90;;;;;;5035530;28;20251;-74
2021/04/16 04:05:34;;;;;;;10.95;8.80;;;2.30;99.90;;;;;;5049536;28;20209;-73
2021/04/16 04:08:00;;;;;;;10.68;8.30;;;2.40;99.90;;;;;;5035049;28;20555;-73
2021/04/16 04:10:33;;;;;;;11.85;7.80;;;2.50;99.90;;;;;;5035002;28;20181;-74
2021/04/16 04:13:00;;;;;;;12.13;8.85;;;2.40;99.90;;;;;;5034891;28;20181;-75
2021/04/16 04:15:28;;;;;;;8.85;7.60;;;2.40;99.90;;;;;;5034431;28;20717;-73
2021/04/16 04:17:55;;;;;;;10.63;8.55;;;2.40;99.90;;;;;;5050506;28;20185;-74
2021/04/16 04:20:24;;;;;;;11.73;8.25;;;2.50;99.90;;;;;;5033605;28;20199;-74
2021/04/16 04:22:51;;;;;;;14.90;9.10;;;2.60;99.90;;;;;;5033027;28;20271;-74
2021/04/16 04:25:23;;;;;;;12.77;8.57;;;2.60;99.90;;;;;;5050141;28;20666;-74
2021/04/16 04:27:50;;;;;;;12.82;8.93;;;2.50;99.90;;;;;;5049710;28;20642;-74
2021/04/16 04:30:20;;;;;;;9.95;8.32;;;2.50;99.90;;;;;;5034687;28;20644;-73
2021/04/16 04:32:46;;;;;;;10.20;8.95;;;2.60;99.90;;;;;;5034259;28;20237;-74
2021/04/16 04:35:13;;;;;;;10.60;8.73;;;2.60;99.90;;;;;;5017037;28;20687;-73
2021/04/16 04:37:39;;;;;;;12.18;9.88;;;2.60;99.90;;;;;;5045721;28;20298;-73
2021/04/16 04:40:07;;;;;;;13.40;9.05;;;2.60;99.90;;;;;;5042395;28;20193;-73
2021/04/16 04:42:34;;;;;;;12.07;8.70;;;2.70;99.90;;;;;;5032731;28;20646;-73
2021/04/16 04:45:00;;;;;;;11.10;8.27;;;2.70;99.90;;;;;;5049493;28;20217;-74
2021/04/16 04:47:29;;;;;;;12.68;10.02;;;2.80;99.90;;;;;;5016383;28;20216;-74
2021/04/16 04:49:56;;;;;;;16.15;8.73;;;2.80;99.90;;;;;;5034480;28;20204;-73
2021/04/16 04:52:24;;;;;;;14.70;9.80;;;2.80;99.90;;;;;;5033686;28;20231;-74
2021/04/16 04:54:53;;;;;;;11.15;9.52;;;2.80;99.90;;;;;;5033907;28;20236;-74
2021/04/16 04:57:21;;;;;;;12.82;9.02;;;2.80;99.90;;;;;;5032281;28;20307;-73
2021/04/16 04:59:48;;;;;;;14.10;10.02;;;2.90;99.90;;;;;;5034188;28;20196;-75
2021/04/16 05:02:17;;;;;;;13.95;9.77;;;2.90;99.90;;;;;;5048901;28;20793;-74
2021/04/16 05:04:44;;;;;;;11.80;8.05;;;3.10;99.90;;;;;;5033651;28;20292;-73
2021/04/16 05:07:10;;;;;;;12.93;10.57;;;3.30;99.90;;;;;;5033437;28;20233;-75
2021/04/16 05:09:37;;;;;;;17.00;11.52;;;3.30;99.90;;;;;;5033688;28;20181;-73
2021/04/16 05:12:04;;;;;;;13.75;9.68;;;3.20;99.90;;;;;;5031998;28;20320;-74
2021/04/16 05:14:31;;;;;;;18.05;10.52;;;3.10;99.90;;;;;;5032608;28;20599;-73
2021/04/16 05:17:02;;;;;;;15.25;9.38;;;3.10;99.90;;;;;;5052635;28;20270;-73
2021/04/16 05:19:32;;;;;;;13.32;10.02;;;3.10;99.90;;;;;;5068584;28;20665;-73
2021/04/16 05:22:02;;;;;;;15.60;9.77;;;3.10;99.90;;;;;;5035344;28;20636;-73
2021/04/16 05:24:31;;;;;;;12.15;10.32;;;3.20;99.90;;;;;;5052672;28;20605;-73
2021/04/16 05:27:05;;;;;;;18.23;10.05;;;3.20;99.90;;;;;;5048261;28;20228;-74
2021/04/16 05:29:32;;;;;;;16.13;10.43;;;3.30;99.90;;;;;;5034847;28;20185;-73
2021/04/16 05:31:58;;;;;;;13.32;10.75;;;3.30;99.90;;;;;;5032846;28;20231;-73
2021/04/16 05:34:25;;;;;;;14.02;10.57;;;3.30;99.90;;;;;;5032276;28;20200;-76
2021/04/16 05:36:53;;;;;;;16.90;11.40;;;3.50;99.90;;;;;;5038001;28;20213;-75
2021/04/16 05:39:19;;;;;;;14.52;11.52;;;3.50;99.90;;;;;;5042034;28;20236;-74
2021/04/16 05:41:46;;;;;;;16.55;10.77;;;3.40;99.90;;;;;;5048172;28;20217;-73
2021/04/16 05:44:13;;;;;;;17.25;11.35;;;3.40;99.90;;;;;;5033199;28;20213;-73
2021/04/16 05:46:39;;;;;;;19.08;12.07;;;3.50;99.90;;;;;;5031676;28;20283;-73
2021/04/16 05:49:06;;;;;;;12.82;10.48;;;3.50;99.90;;;;;;5016128;28;20192;-74
2021/04/16 05:51:33;;;;;;;17.15;11.63;;;3.50;99.90;;;;;;5032676;28;20213;-75
2021/04/16 05:54:00;;;;;;;16.63;11.00;;;3.50;99.90;;;;;;5036092;28;20181;-73
2021/04/16 05:56:27;;;;;;;15.90;11.65;;;3.50;99.90;;;;;;5032271;28;20224;-75
2021/04/16 05:58:53;;;;;;;16.73;10.15;;;3.60;99.90;;;;;;5031800;28;20217;-74
2021/04/16 06:01:20;;;;;;;14.43;10.75;;;3.70;99.90;;;;;;5038017;28;20255;-73
2021/04/16 06:03:47;;;;;;;14.30;10.23;;;3.80;99.90;;;;;;5052978;28;20310;-74
2021/04/16 06:06:14;;;;;;;17.33;12.07;;;3.90;99.90;;;;;;5051198;28;20240;-73
2021/04/16 06:08:41;;;;;;;12.95;10.00;;;4.00;99.90;;;;;;5040261;28;20185;-76
2021/04/16 06:11:08;;;;;;;13.48;10.48;;;4.10;99.90;;;;;;5030650;28;20576;-74
2021/04/16 06:13:38;;;;;;;16.67;12.13;;;4.20;99.90;;;;;;5032833;28;20213;-72
2021/04/16 06:16:08;;;;;;;15.23;10.50;;;4.20;99.90;;;;;;5031672;28;20387;-75
2021/04/16 06:18:35;;;;;;;13.30;10.18;;;4.30;99.90;;;;;;5057159;28;20216;-73
2021/04/16 06:21:02;;;;;;;17.35;10.55;;;4.40;99.90;;;;;;5051914;28;20215;-72
2021/04/16 06:23:29;;;;;;;12.00;10.07;;;4.60;99.90;;;;;;5050939;28;20180;-74
2021/04/16 06:25:56;;;;;;;15.40;10.65;;;4.60;99.90;;;;;;5036344;28;20583;-76
2021/04/16 06:28:22;;;;;;;17.02;10.52;;;4.70;99.90;;;;;;5032387;28;20242;-72
2021/04/16 06:30:49;;;;;;;13.52;10.48;;;4.70;99.90;;;;;;5030844;28;20253;-74
2021/04/16 06:33:26;;;;;;;14.35;11.10;;;4.70;99.90;;;;;;5030973;28;20189;-75
2021/04/16 06:36:05;;;;;;;12.40;9.80;;;4.70;99.90;;;;;;5031583;28;20217;-75
2021/04/16 06:38:35;;;;;;;16.30;11.20;;;4.60;99.90;;;;;;5047797;28;20801;-75
2021/04/16 06:41:03;;;;;;;13.55;11.25;;;4.60;99.90;;;;;;5047132;28;20586;-74
2021/04/16 06:43:44;;;;;;;11.02;9.93;;;4.70;99.90;;;;;;5032213;28;20187;-73
2021/04/16 06:46:23;;;;;;;14.00;9.60;;;4.70;99.90;;;;;;5029639;28;20213;-73
2021/04/16 06:48:49;;;;;;;16.15;9.98;;;4.70;99.90;;;;;;5032206;28;20183;-75
2021/04/16 06:51:19;;;;;;;15.82;11.82;;;4.70;99.90;;;;;;5031648;28;20304;-73
2021/04/16 06:53:51;;;;;;;15.65;11.02;;;4.70;99.90;;;;;;5031676;28;20185;-73
2021/04/16 06:56:25;;;;;;;11.70;10.30;;;4.70;99.90;;;;;;5046690;28;20244;-73
2021/04/16 06:59:21;;;;;;;16.88;10.88;;;4.70;99.90;;;;;;5030673;28;20208;-73
2021/04/16 07:02:11;;;;;;;15.80;9.85;;;4.80;99.90;;;;;;5026970;28;20308;-73
2021/04/16 07:04:52;;;;;;;14.52;11.00;;;4.90;99.90;;;;;;5031749;28;20674;-74
2021/04/16 07:07:36;;;;;;;14.00;9.65;;;4.90;99.90;;;;;;5031182;28;20216;-73
2021/04/16 07:10:14;;;;;;;16.30;10.95;;;4.90;99.90;;;;;;5031786;28;20199;-75
2021/04/16 07:12:42;;;;;;;13.82;10.25;;;4.90;99.90;;;;;;5046764;28;20267;-73
2021/04/16 07:15:13;;;;;;;11.20;9.75;;;5.00;99.90;;;;;;5031513;28;20293;-75
2021/04/16 07:17:45;;;;;;;10.20;9.10;;;5.10;99.90;;;;;;5036308;28;20255;-73
2021/04/16 07:20:13;;;;;;;10.38;9.23;;;5.20;99.90;;;;;;5055288;28;20184;-73
2021/04/16 07:22:46;;;;;;;12.85;10.10;;;5.30;99.90;;;;;;5057920;28;20216;-73
2021/04/16 07:25:37;;;;;;;10.93;9.27;;;5.40;99.90;;;;;;5056113;28;20207;-72
2021/04/16 07:28:45;;;;;;;11.57;10.27;;;5.60;99.90;;;;;;5056950;28;20208;-73
2021/04/16 07:31:32;;;;;;;12.48;9.43;;;5.60;99.90;;;;;;5025084;28;20216;-73
2021/04/16 07:34:00;;;;;;;12.38;8.55;;;5.80;99.90;;;;;;5053624;28;20196;-74
2021/04/16 07:36:40;;;;;;;19.77;9.10;;;5.80;99.90;;;;;;5021471;28;20232;-75
2021/04/16 07:39:12;;;;;;;11.88;9.18;;;5.90;99.90;;;;;;5048295;28;20191;-73
2021/04/16 07:41:48;;;;;;;10.40;9.30;;;5.90;99.90;;;;;;5052358;28;20278;-75
2021/04/16 07:44:34;;;;;;;18.10;9.65;;;5.90;99.90;;;;;;5036869;28;20689;-72
2021/04/16 07:47:04;;;;;;;13.60;9.23;;;5.90;99.90;;;;;;5037892;28;20294;-73
2021/04/16 07:49:32;;;;;;;14.10;8.60;;;6.10;99.90;;;;;;5058728;28;20181;-75
2021/04/16 07:52:22;;;;;;;11.80;8.73;;;6.20;99.90;;;;;;5057434;28;20266;-75
2021/04/16 07:55:23;;;;;;;12.10;9.93;;;6.40;99.90;;;;;;5051522;28;20618;-75
2021/04/16 07:58:07;;;;;;;12.18;7.97;;;6.60;99.90;;;;;;5015321;28;20213;-75
2021/04/16 08:00:43;;;;;;;9.32;8.00;;;6.70;99.90;;;;;;5037467;28;20223;-72
2021/04/16 08:03:24;;;;;;;10.68;8.80;;;7.00;99.90;;;;;;5037996;28;20192;-73
2021/04/16 08:05:55;;;;;;;11.23;9.15;;;6.90;99.90;;;;;;5052387;28;20244;-73
2021/04/16 08:08:25;;;;;;;11.55;9.57;;;6.90;99.90;;;;;;5047347;28;20188;-73
2021/04/16 08:11:04;;;;;;;11.73;7.95;;;7.00;99.90;;;;;;5056102;28;20278;-73
2021/04/16 08:13:31;;;;;;;12.70;9.68;;;7.00;99.90;;;;;;5073463;28;20188;-74
2021/04/16 08:16:20;;;;;;;10.27;9.18;;;7.10;99.90;;;;;;5044825;28;20689;-75
2021/04/16 08:19:10;;;;;;;10.45;9.38;;;7.20;99.90;;;;;;5044923;28;20192;-73
2021/04/16 08:21:45;;;;;;;11.48;8.52;;;7.50;99.90;;;;;;5055217;28;20293;-75
2021/04/16 08:24:17;;;;;;;10.20;8.40;;;7.60;99.90;;;;;;5026149;28;20577;-73
2021/04/16 08:26:51;;;;;;;9.45;7.82;;;7.60;99.90;;;;;;5050994;28;20239;-73
2021/04/16 08:29:26;;;;;;;10.02;8.65;;;7.70;99.90;;;;;;5053285;28;20189;-73
2021/04/16 08:32:03;;;;;;;10.93;8.70;;;7.70;99.90;;;;;;5039672;28;20294;-74
2021/04/16 08:34:49;;;;;;;8.48;7.35;;;7.70;99.90;;;;;;5054429;28;20216;-73
2021/04/16 08:37:22;;;;;;;9.75;8.05;;;7.70;99.90;;;;;;5052482;28;20220;-74
2021/04/16 08:39:50;;;;;;;10.18;8.43;;;7.60;99.90;;;;;;5034376;28;20213;-75
2021/04/16 08:42:26;;;;;;;12.45;7.97;;;7.60;99.90;;;;;;5033823;28;20225;-73
2021/04/16 08:44:58;;;;;;;10.20;8.38;;;7.60;99.90;;;;;;5049282;28;20230;-73
2021/04/16 08:47:36;;;;;;;10.15;8.43;;;7.50;99.90;;;;;;5037195;28;20212;-73
2021/04/16 08:50:05;;;;;;;10.43;8.48;;;7.50;99.90;;;;;;5049682;28;20631;-73
2021/04/16 08:52:48;;;;;;;10.35;8.40;;;7.60;99.90;;;;;;5033769;28;20286;-73
2021/04/16 08:55:31;;;;;;;8.00;6.90;;;7.70;99.90;;;;;;5030192;28;20217;-73
2021/04/16 08:58:20;;;;;;;11.60;7.88;;;7.70;99.90;;;;;;5033928;28;20219;-73
2021/04/16 09:00:54;;;;;;;9.77;6.90;;;7.60;99.90;;;;;;5038050;28;20493;-73
2021/04/16 09:03:40;;;;;;;6.47;5.47;;;7.70;99.90;;;;;;5049606;28;20260;-73
2021/04/16 09:06:30;;;;;;;6.28;5.50;;;7.70;99.90;;;;;;5047373;28;20216;-73
2021/04/16 09:08:58;;;;;;;7.25;6.10;;;7.80;99.90;;;;;;5032548;28;20555;-73
2021/04/16 09:11:41;;;;;;;7.63;5.70;;;7.90;99.90;;;;;;5043723;28;20224;-73
2021/04/16 09:14:28;;;;;;;11.73;6.43;;;7.90;99.90;;;;;;5052386;28;20262;-73
2021/04/16 09:17:08;;;;;;;7.32;5.82;;;8.00;99.90;;;;;;5053998;28;20266;-74
2021/04/16 09:19:42;;;;;;;6.65;5.95;;;8.10;99.90;;;;;;5053750;28;20215;-73
2021/04/16 09:22:11;;;;;;;8.07;6.22;;;8.10;99.90;;;;;;5037065;28;20302;-72
2021/04/16 09:25:09;;;;;;;6.30;5.38;;;8.10;99.90;;;;;;5047300;28;20771;-73
2021/04/16 09:27:43;;;;;;;7.47;5.60;;;8.00;99.90;;;;;;5048608;28;20299;-73
2021/04/16 09:30:20;;;;;;;7.05;5.70;;;8.00;99.90;;;;;;5038148;28;20599;-73
2021/04/16 09:32:52;;;;;;;9.50;6.60;;;8.10;99.90;;;;;;5048412;28;20220;-73
2021/04/16 09:35:18;;;;;;;11.73;6.55;;;8.10;99.90;;;;;;5015760;28;20224;-73
2021/04/16 09:37:49;;;;;;;8.07;7.07;;;8.20;99.90;;;;;;5032763;28;20225;-73
2021/04/16 09:40:17;;;;;;;7.80;6.28;;;8.20;99.90;;;;;;5047267;28;20610;-74
2021/04/16 09:42:45;;;;;;;10.75;7.50;;;8.20;99.90;;;;;;5044307;28;20757;-74
2021/04/16 09:45:33;;;;;;;13.93;6.75;;;8.30;99.90;;;;;;5046714;28;20252;-73
2021/04/16 09:48:02;;;;;;;9.55;6.85;;;8.50;99.90;;;;;;5021755;28;20217;-74
2021/04/16 09:50:48;;;;;;;10.93;6.82;;;8.50;99.90;;;;;;5033095;28;20185;-73
2021/04/16 09:53:32;;;;;;;18.52;8.35;;;8.50;99.90;;;;;;5031765;28;20577;-74
2021/04/16 09:56:00;;;;;;;13.95;7.20;;;8.60;99.90;;;;;;5030931;28;20300;-74
2021/04/16 09:58:30;;;;;;;12.40;6.90;;;8.60;99.90;;;;;;5032982;28;20182;-73
2021/04/16 10:00:57;;;;;;;12.25;7.57;;;8.70;99.90;;;;;;5039010;28;20259;-73
2021/04/16 10:03:25;;;;;;;9.98;7.45;;;8.70;99.90;;;;;;5048497;28;20182;-76
2021/04/16 10:05:53;;;;;;;7.93;6.10;;;8.80;99.90;;;;;;5047317;28;20236;-74
2021/04/16 10:08:29;;;;;;;9.90;5.80;;;8.90;99.90;;;;;;5033123;28;20189;-74
2021/04/16 10:11:07;;;;;;;7.88;6.95;;;9.00;99.90;;;;;;5060139;28;20270;-74
2021/04/16 10:13:39;;;;;;;8.73;7.03;;;9.20;99.90;;;;;;5036928;28;20290;-74
2021/04/16 10:16:17;;;;;;;8.83;6.77;;;9.60;99.90;;;;;;5027931;28;20999;-74
2021/04/16 10:18:44;;;;;;;9.57;6.70;;;10.20;99.00;;;;;;5041831;28;20443;-74
2021/04/16 10:21:27;;;;;;;8.90;6.43;;;10.50;94.40;;;;;;5030778;28;20542;-73
2021/04/16 10:24:43;;;;;;;8.23;6.83;;;10.80;94.50;;;;;;5032500;28;21206;-73
2021/04/16 11:31:58;;;;;;;9.40;5.87;;;10.30;89.80;;;;;;5038690;28;20440;-73
2021/04/16 12:38:27;;;;;;;5.70;4.73;;;10.00;92.30;;;;;;5049729;28;20521;-74
2021/04/16 12:40:53;;;;;;;7.07;4.03;;;10.20;93.50;;;;;;5032513;28;20452;-74
2021/04/16 12:43:20;;;;;;;6.00;4.47;;;10.20;88.80;;;;;;5017120;28;20474;-74
2021/04/16 12:45:50;;;;;;;7.70;5.30;;;10.20;87.90;;;;;;5048933;28;20471;-73
2021/04/16 12:48:16;;;;;;;9.77;4.60;;;10.10;90.00;;;;;;5034449;28;20442;-75
2021/04/16 12:50:43;;;;;;;6.00;4.73;;;10.20;88.90;;;;;;5033641;28;20430;-73
2021/04/16 12:53:09;;;;;;;5.83;4.97;;;10.20;86.10;;;;;;5033266;28;20425;-75
2021/04/16 12:55:35;;;;;;;5.80;3.57;;;10.20;90.10;;;;;;5046263;28;20495;-76
2021/04/16 12:58:06;;;;;;;5.07;3.60;;;10.20;89.10;;;;;;5051356;28;20428;-73
2021/04/16 13:00:36;;;;;;;7.60;4.17;;;10.20;88.70;;;;;;5033541;28;20806;-73
2021/04/16 13:03:17;;;;;;;4.97;3.70;;;10.10;87.80;;;;;;5049729;28;20945;-73
2021/04/16 13:05:46;;;;;;;4.73;4.10;;;10.20;89.50;;;;;;5048561;28;20853;-73
2021/04/16 13:08:13;;;;;;;4.30;3.23;;;10.20;91.00;;;;;;5033045;28;20527;-74
2021/04/16 13:10:40;;;;;;;4.30;3.90;;;10.20;90.10;;;;;;5033107;28;20542;-73
2021/04/16 13:13:06;;;;;;;4.80;3.50;;;10.10;90.40;;;;;;5032991;28;20440;-73
2021/04/16 13:15:32;;;;;;;4.57;4.17;;;10.10;90.80;;;;;;5031920;28;20550;-74
2021/04/16 13:18:03;;;;;;;4.90;3.30;;;10.10;90.70;;;;;;5037872;28;20430;-74
2021/04/16 13:20:30;;;;;;;4.73;3.50;;;10.10;90.20;;;;;;5049487;28;20471;-74
2021/04/16 13:22:57;;;;;;;4.67;3.57;;;10.20;90.60;;;;;;5053856;28;20431;-73
2021/04/16 13:25:28;;;;;;;3.93;3.50;;;10.20;90.50;;;;;;5048369;28;20471;-74
2021/04/16 13:27:54;;;;;;;7.20;3.80;;;10.20;90.50;;;;;;5033594;28;20440;-73
2021/04/16 13:30:24;;;;;;;4.97;3.27;;;10.20;90.50;;;;;;5048888;28;20817;-74
2021/04/16 13:32:54;;;;;;;4.03;3.00;;;10.30;87.60;;;;;;5032546;28;20460;-74
2021/04/16 13:35:29;;;;;;;6.50;3.30;;;10.40;87.60;;;;;;5033359;28;20456;-73
2021/04/16 13:37:58;;;;;;;6.03;3.27;;;10.60;92.40;;;;;;5036017;28;20933;-73
2021/04/16 13:40:27;;;;;;;7.30;3.10;;;10.70;91.70;;;;;;5049861;28;20455;-73
2021/04/16 13:42:53;;;;;;;8.33;3.40;;;11.00;87.30;;;;;;5052864;28;20439;-75
2021/04/16 13:45:20;;;;;;;6.23;2.97;;;11.10;86.20;;;;;;5034988;28;20525;-77
2021/04/16 13:47:46;;;;;;;4.87;3.00;;;11.10;85.00;;;;;;5036246;28;20470;-74
2021/04/16 13:50:15;;;;;;;4.00;2.60;;;11.30;70.90;;;;;;5048451;28;20443;-73
2021/04/16 13:52:42;;;;;;;3.30;2.30;;;11.30;70.50;;;;;;5047716;28;20487;-74
2021/04/16 13:55:13;;;;;;;9.47;2.67;;;11.20;72.60;;;;;;5032986;28;20555;-73
2021/04/16 13:57:41;;;;;;;3.63;2.37;;;11.30;73.10;;;;;;5031386;28;20466;-73
2021/04/16 14:00:10;;;;;;;2.90;2.47;;;11.40;70.30;;;;;;5048256;28;20470;-73
2021/04/16 14:02:44;;;;;;;4.87;2.77;;;11.50;70.40;;;;;;5051254;28;20530;-74
2021/04/16 14:05:14;;;;;;;4.57;2.93;;;11.70;66.90;;;;;;5036414;28;20479;-74
2021/04/16 14:07:42;;;;;;;3.93;2.60;;;11.80;60.50;;;;;;5032480;28;20483;-75
2021/04/16 14:10:10;;;;;;;3.30;2.33;;;11.80;61.40;;;;;;5032015;28;20487;-74
2021/04/16 14:12:36;;;;;;;5.30;3.13;;;11.80;64.40;;;;;;5030871;28;20452;-74
2021/04/16 14:15:08;;;;;;;7.23;2.70;;;11.80;64.20;;;;;;5048150;28;20460;-74
2021/04/16 14:18:01;;;;;;;2.70;2.40;;;11.80;65.50;;;;;;5047253;28;20472;-75
2021/04/16 14:20:37;;;;;;;2.90;2.60;;;11.80;63.70;;;;;;5030981;28;20432;-74
2021/04/16 14:23:06;;;;;;;2.93;2.60;;;11.70;64.80;;;;;;5031582;28;20443;-74
2021/04/16 14:25:36;;;;;;;4.33;2.77;;;11.70;64.40;;;;;;5031876;28;20479;-75
2021/04/16 14:28:08;;;;;;;4.00;3.43;;;11.70;63.70;;;;;;5032044;28;20419;-75
2021/04/16 14:30:37;;;;;;;3.30;2.50;;;11.80;63.70;;;;;;5032040;28;20748;-77
2021/04/16 14:33:10;;;;;;;3.20;2.73;;;11.90;62.50;;;;;;5034832;28;20577;-75
2021/04/16 14:35:37;;;;;;;3.77;3.00;;;11.90;64.00;;;;;;5050294;28;20446;-75
2021/04/16 14:38:08;;;;;;;4.50;2.70;;;11.90;66.90;;;;;;5052337;28;20459;-75
2021/04/16 14:40:36;;;;;;;3.23;2.50;;;12.00;63.80;;;;;;5046250;28;20512;-74
2021/04/16 14:43:05;;;;;;;4.67;2.83;;;11.90;61.20;;;;;;5032319;28;20438;-75
2021/04/16 14:45:35;;;;;;;3.30;3.00;;;11.90;61.10;;;;;;5031878;28;20476;-76
2021/04/16 14:48:03;;;;;;;5.03;2.77;;;11.80;63.10;;;;;;5032099;28;20503;-75
2021/04/16 14:50:30;;;;;;;2.47;2.20;;;11.90;60.50;;;;;;5030230;28;20432;-75
2021/04/16 14:53:02;;;;;;;4.23;3.83;;;11.90;61.70;;;;;;5030787;28;20422;-76
2021/04/16 14:55:33;;;;;;;4.80;2.87;;;11.90;63.50;;;;;;5030925;28;20517;-73
2021/04/16 14:58:01;;;;;;;3.50;2.20;;;11.80;62.50;;;;;;5030756;28;20532;-76
2021/04/16 15:00:31;;;;;;;2.97;2.57;;;11.80;64.90;;;;;;5046735;28;20452;-76
2021/04/16 15:02:58;;;;;;;3.17;2.50;;;12.00;64.80;;;;;;5047229;28;20440;-77
2021/04/16 15:05:25;;;;;;;6.10;2.50;;;12.00;55.90;;;;;;5029926;28;20538;-75
2021/04/16 15:08:16;;;;;;;3.23;2.37;;;12.00;56.40;;;;;;5030787;28;20420;-76
2021/04/16 15:10:47;;;;;;;3.17;2.10;;;11.90;54.30;;;;;;5031134;28;20535;-74
2021/04/16 15:13:21;;;;;;;2.70;2.20;;;11.90;56.10;;;;;;5047337;28;20533;-75
2021/04/16 15:15:48;;;;;;;2.43;2.23;;;11.90;56.30;;;;;;5046559;28;20467;-74